Time;durP1;ratioP1;P1;durP2;ratioP2;P2;SDS_P1;SDS_P2;PMS_P1;PMS_P2;Temp;Humidity;BMP_temperature;BMP_pressure;BME280_temperature;BME280_humidity;BME280_pressure;Samples;Min_cycle;Max_cycle;Signal;HPM_P1;HPM_P2
2022/05/14 00:01:29;;;;;;;6.37;4.90;;;;;;;15.85;62.86;96954.25;5099621;28;20224;-86
2022/05/14 00:04:00;;;;;;;5.83;5.23;;;;;;;16.05;62.35;96948.47;5062599;28;20663;-85
2022/05/14 00:06:30;;;;;;;6.33;5.67;;;;;;;16.09;62.04;96949.13;5091145;28;20242;-86
2022/05/14 00:09:02;;;;;;;7.50;5.57;;;;;;;16.34;61.54;96948.25;5091436;28;20199;-90
2022/05/14 00:14:14;;;;;;;5.70;5.03;;;;;;;16.37;60.81;96953.25;5072383;28;20194;-91
2022/05/14 00:16:41;;;;;;;6.53;4.97;;;;;;;16.12;61.62;96907.09;5073194;28;20740;-85
2022/05/14 00:19:09;;;;;;;6.90;5.60;;;;;;;16.39;61.36;96941.75;5089345;28;20194;-90
2022/05/14 00:21:37;;;;;;;5.60;4.70;;;;;;;16.28;61.01;96916.38;5072439;28;20192;-85
2022/05/14 00:24:08;;;;;;;5.80;4.73;;;;;;;16.39;60.91;96936.53;5089148;28;20236;-86
2022/05/14 00:26:37;;;;;;;5.73;4.77;;;;;;;16.56;60.75;96946.66;5091648;28;20184;-85
2022/05/14 00:29:06;;;;;;;5.67;4.80;;;;;;;16.17;60.25;96858.81;5074875;28;20281;-84
2022/05/14 00:31:37;;;;;;;7.07;4.90;;;;;;;16.66;60.37;96944.22;5075367;28;20643;-90
2022/05/14 00:34:07;;;;;;;5.20;4.70;;;;;;;16.62;60.41;96930.53;5105697;28;20197;-89
2022/05/14 00:36:36;;;;;;;6.73;4.80;;;;;;;16.44;60.65;96917.91;5086798;28;20242;-90
2022/05/14 00:39:04;;;;;;;7.00;5.13;;;;;;;16.47;61.05;96925.53;5114925;28;20193;-85
2022/05/14 00:41:32;;;;;;;8.30;5.33;;;;;;;16.24;61.49;96930.59;5095741;28;20249;-88
2022/05/14 00:44:01;;;;;;;9.40;5.37;;;;;;;15.94;62.44;96927.50;5107026;28;20191;-93
2022/05/14 00:46:45;;;;;;;6.20;5.60;;;;;;;15.14;64.19;96878.16;5076536;28;20228;-94
2022/05/14 00:49:18;;;;;;;8.93;5.70;;;;;;;15.03;64.77;96903.25;5095352;28;20182;-85
2022/05/14 00:51:46;;;;;;;7.63;5.77;;;;;;;15.16;64.54;96919.78;5111618;28;20238;-91
2022/05/14 00:54:27;;;;;;;6.00;5.40;;;;;;;14.78;65.37;96892.75;5090532;28;20218;-92
2022/05/14 00:56:58;;;;;;;8.43;5.87;;;;;;;14.88;65.27;96915.50;5077261;28;20199;-93
2022/05/14 00:59:27;;;;;;;6.47;5.57;;;;;;;14.87;65.45;96929.50;5092001;28;20581;-96
2022/05/14 01:01:56;;;;;;;7.17;6.40;;;;;;;14.80;65.63;96930.81;5076114;28;20212;-92
2022/05/14 01:04:26;;;;;;;10.90;6.60;;;;;;;14.45;66.40;96914.81;5072735;28;20188;-94
2022/05/14 01:07:02;;;;;;;6.90;6.07;;;;;;;14.35;66.90;96925.91;5072981;28;20192;-91
2022/05/14 01:09:30;;;;;;;7.47;6.00;;;;;;;14.37;67.29;96924.88;5109037;28;20182;-88
2022/05/14 01:11:59;;;;;;;11.20;6.37;;;;;;;14.24;67.10;96918.72;5095962;28;20236;-86
2022/05/14 01:14:28;;;;;;;7.00;6.30;;;;;;;14.09;67.71;96906.69;5081324;28;20177;-85
2022/05/14 01:16:57;;;;;;;8.00;6.73;;;;;;;14.42;67.26;96922.84;5080460;28;20185;-85
2022/05/14 01:19:30;;;;;;;7.37;6.07;;;;;;;14.63;66.28;96916.25;5079096;28;20216;-95
2022/05/14 01:22:17;;;;;;;7.53;6.40;;;;;;;14.87;65.28;96911.25;5093334;28;20667;-96
2022/05/14 01:28:01;;;;;;;8.17;5.57;;;;;;;14.97;63.18;96883.63;5093450;28;20192;-92
2022/05/14 01:30:29;;;;;;;11.47;5.73;;;;;;;15.17;63.59;96903.16;5096867;28;20204;-93
2022/05/14 01:33:06;;;;;;;7.73;4.80;;;;;;;15.10;62.23;96897.56;5084162;28;20208;-95
2022/05/14 01:35:41;;;;;;;5.87;4.77;;;;;;;15.24;60.96;96917.50;5073853;28;20199;-88
2022/05/14 01:38:10;;;;;;;7.47;4.50;;;;;;;15.17;60.84;96905.78;5071917;28;20181;-93
2022/05/14 01:40:37;;;;;;;6.23;4.73;;;;;;;15.08;60.80;96877.72;5092351;28;20628;-95
2022/05/14 01:43:04;;;;;;;7.23;4.60;;;;;;;15.30;61.08;96909.25;5055529;28;20224;-95
2022/05/14 01:45:32;;;;;;;7.73;4.40;;;;;;;15.22;61.10;96919.38;5073942;28;20183;-93
2022/05/14 01:48:00;;;;;;;8.70;4.57;;;;;;;15.00;61.50;96899.06;5055666;28;20588;-95
2022/05/14 01:50:28;;;;;;;7.30;4.97;;;;;;;14.58;62.42;96866.22;5092980;28;20199;-89
2022/05/14 01:52:55;;;;;;;5.87;4.73;;;;;;;14.69;62.58;96915.84;5110345;28;20188;-95
2022/05/14 01:55:23;;;;;;;6.00;4.90;;;;;;;14.69;62.45;96902.81;5073226;28;20184;-90
2022/05/14 01:57:51;;;;;;;6.53;4.73;;;;;;;14.74;62.58;96912.97;5085885;28;20284;-91
2022/05/14 02:00:21;;;;;;;6.60;5.03;;;;;;;14.81;62.12;96921.22;5065344;28;20184;-84
2022/05/14 02:02:53;;;;;;;7.03;5.23;;;;;;;14.85;62.89;96915.72;5097177;28;20231;-89
2022/05/14 02:05:21;;;;;;;7.40;5.03;;;;;;;14.60;62.55;96872.16;5116567;28;20181;-88
2022/05/14 02:07:57;;;;;;;7.53;5.53;;;;;;;14.57;62.67;96864.53;5086790;28;20169;-87
2022/05/14 02:10:24;;;;;;;6.97;4.83;;;;;;;14.87;62.94;96892.16;5103233;28;20176;-88
2022/05/14 02:12:52;;;;;;;9.70;5.20;;;;;;;14.93;62.61;96910.00;5103713;28;20175;-85
2022/05/14 02:15:19;;;;;;;6.60;4.90;;;;;;;14.83;62.57;96904.56;5085070;28;20199;-87
2022/05/14 02:17:46;;;;;;;6.10;4.73;;;;;;;14.92;64.78;96903.13;5119334;28;20252;-85
2022/05/14 02:20:16;;;;;;;7.73;5.07;;;;;;;14.98;62.62;96906.16;5094842;28;20605;-85
2022/05/14 02:22:44;;;;;;;5.83;4.70;;;;;;;14.31;63.51;96873.16;5095524;28;20287;-83
2022/05/14 02:25:14;;;;;;;8.00;4.93;;;;;;;14.32;64.13;96900.88;5093532;28;20192;-87
2022/05/14 02:27:42;;;;;;;6.83;5.13;;;;;;;14.39;64.90;96899.56;5075918;28;20190;-85
2022/05/14 02:30:14;;;;;;;10.63;5.17;;;;;;;14.50;63.91;96904.97;5072833;28;20176;-85
2022/05/14 02:32:41;;;;;;;5.37;4.87;;;;;;;14.63;64.43;96895.41;5092141;28;20580;-84
2022/05/14 02:35:09;;;;;;;8.20;5.37;;;;;;;14.89;62.78;96900.72;5126405;28;20196;-91
2022/05/14 02:37:37;;;;;;;7.90;5.10;;;;;;;14.99;62.63;96901.78;5132193;28;20259;-85
2022/05/14 02:40:06;;;;;;;8.10;4.80;;;;;;;15.02;62.82;96897.19;5098719;28;20184;-84
2022/05/14 02:42:38;;;;;;;8.17;5.00;;;;;;;14.63;62.62;96861.53;5107776;28;20219;-86
2022/05/14 02:45:09;;;;;;;6.20;4.93;;;;;;;14.69;62.99;96886.38;5094404;28;20205;-85
2022/05/14 02:47:41;;;;;;;6.13;4.90;;;;;;;14.51;63.65;96848.44;5123097;28;20202;-85
2022/05/14 02:50:11;;;;;;;5.20;4.70;;;;;;;14.52;64.07;96895.28;5128177;28;20207;-87
2022/05/14 02:52:42;;;;;;;8.97;6.03;;;;;;;14.05;65.16;96871.34;5110389;28;20248;-85
2022/05/14 02:55:11;;;;;;;9.67;5.20;;;;;;;13.84;67.00;96888.28;5104086;28;20256;-86
2022/05/14 02:57:50;;;;;;;5.53;5.00;;;;;;;13.63;67.40;96861.78;5093775;28;20205;-86
2022/05/14 03:00:20;;;;;;;6.07;5.27;;;;;;;14.05;66.45;96897.38;5115836;28;20225;-92
2022/05/14 03:02:48;;;;;;;6.20;5.60;;;;;;;13.76;66.97;96864.47;5134469;28;20262;-86
2022/05/14 03:05:20;;;;;;;6.17;5.40;;;;;;;13.96;67.49;96907.50;5135945;28;20251;-86
2022/05/14 03:07:50;;;;;;;8.60;4.97;;;;;;;14.02;66.89;96897.56;5137276;28;20251;-88
2022/05/14 03:10:17;;;;;;;7.77;5.17;;;;;;;14.01;67.09;96890.69;5093466;28;20222;-87
2022/05/14 03:12:46;;;;;;;7.40;5.30;;;;;;;13.97;67.09;96868.38;5132431;28;20183;-91
2022/05/14 03:15:13;;;;;;;7.53;5.67;;;;;;;14.22;66.38;96891.94;5114043;28;20189;-85
2022/05/14 03:17:41;;;;;;;10.27;5.53;;;;;;;14.36;65.91;96885.91;5107382;28;20260;-85
2022/05/14 03:20:11;;;;;;;7.70;5.50;;;;;;;14.47;66.34;96906.91;5108956;28;20194;-86
2022/05/14 03:22:40;;;;;;;6.97;6.17;;;;;;;14.51;66.08;96903.16;5089417;28;20722;-93
2022/05/14 03:25:09;;;;;;;8.73;6.80;;;;;;;14.29;65.92;96903.69;5122095;28;20209;-88
2022/05/14 03:27:37;;;;;;;8.70;6.03;;;;;;;14.09;66.65;96893.66;5106908;28;20198;-85
2022/05/14 03:30:05;;;;;;;8.07;6.20;;;;;;;14.22;66.49;96883.31;5088339;28;20191;-85
2022/05/14 03:32:32;;;;;;;8.77;5.87;;;;;;;14.52;65.11;96897.88;5107883;28;20194;-85
2022/05/14 03:35:05;;;;;;;8.23;5.93;;;;;;;14.39;64.91;96844.03;5131034;28;20237;-84
2022/05/14 03:37:33;;;;;;;7.77;6.13;;;;;;;14.86;63.80;96864.44;5109488;28;20684;-85
2022/05/14 03:40:00;;;;;;;7.57;5.73;;;;;;;15.42;61.70;96898.88;5109655;28;20650;-84
2022/05/14 03:42:30;;;;;;;8.93;5.67;;;;;;;15.44;61.46;96910.03;5109269;28;20180;-85
2022/05/14 03:44:59;;;;;;;7.10;5.87;;;;;;;15.02;62.31;96875.50;5095060;28;20192;-85
2022/05/14 03:47:28;;;;;;;7.10;5.67;;;;;;;14.88;63.45;96915.50;5111728;28;20185;-85
2022/05/14 03:49:56;;;;;;;17.80;6.17;;;;;;;14.73;64.37;96916.53;5109757;28;20187;-86
2022/05/14 03:52:23;;;;;;;7.67;5.77;;;;;;;14.56;64.68;96909.78;5132508;28;20177;-83
2022/05/14 03:54:50;;;;;;;6.63;5.93;;;;;;;14.62;64.28;96904.16;5115808;28;20198;-85
2022/05/14 03:57:18;;;;;;;7.77;6.40;;;;;;;14.40;64.75;96861.34;5117862;28;20204;-85
2022/05/14 03:59:46;;;;;;;8.33;7.27;;;;;;;14.65;64.46;96885.72;5099868;28;20203;-85
2022/05/14 04:02:13;;;;;;;9.00;7.27;;;;;;;14.84;64.36;96936.69;5079043;28;20172;-83
2022/05/14 04:04:40;;;;;;;9.00;7.50;;;;;;;14.76;65.87;96941.53;5110067;28;20765;-86
2022/05/14 04:07:07;;;;;;;9.67;7.20;;;;;;;14.69;64.92;96900.22;5114665;28;20278;-83
2022/05/14 04:09:34;;;;;;;7.57;6.60;;;;;;;14.91;64.86;96930.13;5110297;28;20187;-90
2022/05/14 04:12:02;;;;;;;11.10;7.13;;;;;;;14.91;64.96;96899.69;5076110;28;20282;-93
2022/05/14 04:14:29;;;;;;;7.77;6.63;;;;;;;14.93;64.89;96915.22;5109601;28;20204;-90
2022/05/14 04:16:58;;;;;;;7.80;6.20;;;;;;;14.93;65.37;96936.94;5092546;28;20734;-88
2022/05/14 04:19:27;;;;;;;10.00;6.43;;;;;;;14.59;65.84;96899.13;5109591;28;20244;-94
2022/05/14 04:21:54;;;;;;;5.90;5.30;;;;;;;14.88;65.74;96925.13;5116551;28;20207;-92
2022/05/14 04:24:22;;;;;;;7.60;6.20;;;;;;;14.82;65.66;96918.50;5101238;28;20512;-94
2022/05/14 04:26:50;;;;;;;8.57;5.50;;;;;;;14.89;65.15;96911.16;5127096;28;20180;-86
2022/05/14 04:29:17;;;;;;;8.37;5.77;;;;;;;15.12;64.03;96882.63;5114792;28;20186;-89
2022/05/14 04:31:45;;;;;;;7.97;6.00;;;;;;;15.69;63.06;96932.72;5112965;28;20211;-93
2022/05/14 04:34:12;;;;;;;6.90;5.47;;;;;;;15.82;62.59;96935.34;5112871;28;20587;-91
2022/05/14 04:36:41;;;;;;;7.03;6.03;;;;;;;15.82;62.27;96938.78;5114843;28;20592;-94
2022/05/14 04:39:10;;;;;;;6.67;5.97;;;;;;;15.88;62.57;96943.59;5045510;28;20291;-94
2022/05/14 04:41:37;;;;;;;7.10;6.40;;;;;;;15.74;62.26;96912.38;5110092;28;20184;-94
2022/05/14 04:44:12;;;;;;;9.57;7.10;;;;;;;16.22;61.47;96935.09;5111279;28;20230;-93
2022/05/14 04:46:40;;;;;;;6.90;5.80;;;;;;;16.40;60.64;96916.47;5110446;28;20192;-90
2022/05/14 04:49:07;;;;;;;6.93;5.87;;;;;;;16.51;60.33;96950.53;5089757;28;20189;-86
2022/05/14 04:51:34;;;;;;;9.03;5.43;;;;;;;16.67;60.37;96940.69;5092567;28;20608;-83
2022/05/14 04:54:02;;;;;;;7.73;5.63;;;;;;;16.97;59.55;96954.16;5109125;28;20193;-91
2022/05/14 04:56:29;;;;;;;9.90;6.20;;;;;;;17.17;59.12;96929.97;5090775;28;20197;-86
2022/05/14 04:58:57;;;;;;;7.47;5.40;;;;;;;16.92;59.71;96910.00;5089920;28;20183;-91
2022/05/14 05:01:24;;;;;;;9.70;5.70;;;;;;;17.00;60.33;96952.13;5092643;28;20192;-91
2022/05/14 05:03:52;;;;;;;7.13;6.03;;;;;;;16.87;60.72;96921.75;5096262;28;20221;-93
2022/05/14 05:06:23;;;;;;;10.47;5.80;;;;;;;17.23;59.52;96932.13;5092448;28;20184;-93
2022/05/14 05:08:52;;;;;;;7.60;5.53;;;;;;;17.74;59.18;96951.84;5077639;28;20672;-90
2022/05/14 05:11:19;;;;;;;9.03;5.97;;;;;;;17.70;58.31;96889.34;5108936;28;20185;-95
2022/05/14 05:13:46;;;;;;;5.90;4.67;;;;;;;18.03;58.54;96940.94;5111150;28;20179;-92
2022/05/14 05:16:14;;;;;;;6.40;5.30;;;;;;;18.37;57.30;96927.72;5110369;28;20189;-96
2022/05/14 05:18:42;;;;;;;8.27;5.00;;;;;;;18.35;57.02;96905.19;5102821;27;20235;-90
2022/05/14 05:21:09;;;;;;;6.93;4.70;;;;;;;18.84;55.59;96923.13;5119527;27;20183;-96
2022/05/14 05:23:36;;;;;;;8.03;4.77;;;;;;;19.02;55.15;96932.97;5132106;28;20257;-86
2022/05/14 05:26:03;;;;;;;11.27;4.70;;;;;;;19.13;54.35;96918.97;5134152;28;20177;-94
2022/05/14 05:28:31;;;;;;;5.73;4.27;;;;;;;19.64;52.66;96911.25;5127090;27;20202;-87
2022/05/14 05:30:58;;;;;;;6.17;4.40;;;;;;;19.85;52.30;96938.34;5080407;28;20656;-94
2022/05/14 05:33:26;;;;;;;5.57;4.23;;;;;;;20.23;51.34;96943.84;5119555;28;20188;-91
2022/05/14 05:35:53;;;;;;;9.70;4.47;;;;;;;20.45;50.55;96913.88;5115150;28;20617;-94
2022/05/14 05:38:20;;;;;;;6.20;4.10;;;;;;;20.67;50.08;96938.19;5076059;28;20191;-95
2022/05/14 05:40:47;;;;;;;4.90;3.83;;;;;;;20.26;50.85;96933.88;5114496;28;20192;-93
2022/05/14 05:43:15;;;;;;;6.13;4.53;;;;;;;20.11;49.72;96852.84;5096725;28;20314;-89
2022/05/14 05:45:47;;;;;;;9.33;4.50;;;;;;;20.77;49.60;96939.03;5096655;28;20188;-93
2022/05/14 05:48:16;;;;;;;6.10;4.13;;;;;;;21.08;49.04;96932.75;5115480;28;20508;-91
2022/05/14 05:50:48;;;;;;;10.20;4.03;;;;;;;21.02;48.52;96901.69;5107486;28;20197;-87
2022/05/14 05:53:17;;;;;;;7.07;4.67;;;;;;;21.01;47.87;96891.28;5105556;28;20708;-94
2022/05/14 05:58:31;;;;;;;7.00;4.10;;;;;;;21.89;46.94;96936.75;5124900;28;20199;-96
2022/05/14 06:01:28;;;;;;;5.27;3.97;;;;;;;22.03;46.74;96943.41;5099129;28;20221;-90
2022/05/14 06:03:57;;;;;;;4.43;3.60;;;;;;;21.91;46.60;96915.53;5119468;28;20229;-89
2022/05/14 06:06:25;;;;;;;4.20;3.40;;;;;;;22.01;46.43;96932.97;5117600;28;20193;-92
2022/05/14 06:08:53;;;;;;;3.93;3.53;;;;;;;21.89;46.95;96942.03;5115346;28;20248;-88
2022/05/14 06:11:21;;;;;;;6.80;3.67;;;;;;;21.57;46.89;96870.34;5127411;28;20298;-92
2022/05/14 06:13:58;;;;;;;6.13;3.87;;;;;;;21.94;47.05;96923.16;5132048;28;20209;-88
2022/05/14 06:16:26;;;;;;;7.77;4.87;;;;;;;22.03;46.99;96946.06;5105957;28;20290;-94
2022/05/14 06:18:55;;;;;;;5.60;3.70;;;;;;;22.10;46.75;96933.94;5100904;28;20202;-96
2022/05/14 06:21:25;;;;;;;3.53;3.23;;;;;;;21.95;46.89;96938.81;5093106;28;20186;-93
2022/05/14 06:23:52;;;;;;;7.80;3.83;;;;;;;21.96;46.90;96923.84;5130864;28;20249;-86
2022/05/14 06:26:21;;;;;;;5.17;4.00;;;;;;;22.39;46.35;96959.25;5130879;28;20187;-90
2022/05/14 06:28:50;;;;;;;4.90;3.60;;;;;;;22.34;46.58;96945.66;5114969;28;20182;-95
2022/05/14 06:31:17;;;;;;;8.80;4.33;;;;;;;22.78;46.37;96959.09;5098994;28;20266;-92
2022/05/14 06:33:47;;;;;;;9.90;3.90;;;;;;;23.02;45.49;96960.22;5101420;28;20203;-87
2022/05/14 06:36:18;;;;;;;10.40;6.73;;;;;;;23.13;44.55;96948.59;5120368;28;20203;-88
2022/05/14 06:38:55;;;;;;;9.87;4.77;;;;;;;23.00;44.93;96942.88;5114222;28;20188;-89
2022/05/14 06:41:26;;;;;;;5.73;4.50;;;;;;;22.62;46.22;96957.13;5124113;28;20189;-91
2022/05/14 06:43:56;;;;;;;7.87;4.10;;;;;;;22.65;45.43;96931.25;5120925;28;20212;-90
2022/05/14 06:46:24;;;;;;;8.30;4.50;;;;;;;22.60;45.85;96977.53;5120225;28;20189;-93
2022/05/14 06:48:51;;;;;;;5.80;4.53;;;;;;;22.05;46.84;96950.19;5121136;28;20198;-90
2022/05/14 06:51:26;;;;;;;12.30;6.87;;;;;;;21.90;48.39;96988.53;5109714;28;20211;-87
2022/05/14 06:54:01;;;;;;;6.10;4.30;;;;;;;21.43;49.77;96968.28;5106127;28;20184;-89
2022/05/14 06:56:32;;;;;;;5.63;4.20;;;;;;;21.05;51.29;96988.34;5100923;28;20558;-90
2022/05/14 06:59:05;;;;;;;4.60;4.20;;;;;;;21.12;51.79;97008.88;5120118;28;20186;-86
2022/05/14 07:01:42;;;;;;;5.27;4.10;;;;;;;20.75;51.37;96940.16;5120358;28;20188;-88
2022/05/14 07:07:03;;;;;;;8.93;4.90;;;;;;;21.20;50.80;96985.31;5116052;28;20198;-89
2022/05/14 07:09:34;;;;;;;8.70;5.57;;;;;;;21.54;49.90;97002.38;5085222;28;20210;-90
2022/05/14 07:12:14;;;;;;;12.40;5.43;;;;;;;21.51;49.53;96971.91;5120994;28;20196;-90
2022/05/14 07:14:44;;;;;;;4.87;4.37;;;;;;;21.64;49.20;96971.59;5122086;28;20883;-88
2022/05/14 07:17:12;;;;;;;11.67;6.93;;;;;;;21.97;49.32;96994.09;5124389;28;20181;-90
2022/05/14 07:19:44;;;;;;;9.77;5.40;;;;;;;22.00;48.47;96989.34;5093191;28;20186;-88
2022/05/14 07:22:19;;;;;;;6.13;4.70;;;;;;;22.02;48.14;96982.13;5103022;28;20547;-88
2022/05/14 07:24:47;;;;;;;9.73;5.10;;;;;;;22.07;46.56;96985.16;5123680;28;20315;-87
2022/05/14 07:27:17;;;;;;;6.57;4.23;;;;;;;22.21;47.01;97028.75;5110868;28;20201;-89
2022/05/14 07:29:59;;;;;;;6.53;5.60;;;;;;;22.04;47.77;97003.94;5092085;28;20219;-86
2022/05/14 07:32:29;;;;;;;8.87;5.60;;;;;;;22.26;47.87;97029.97;5106139;28;20222;-93
2022/05/14 07:34:59;;;;;;;9.67;5.40;;;;;;;22.15;47.93;97016.97;5123990;28;20182;-90
2022/05/14 07:37:39;;;;;;;13.07;6.17;;;;;;;22.25;48.27;97030.97;5122965;28;20202;-86
2022/05/14 07:40:13;;;;;;;7.07;5.30;;;;;;;22.07;48.97;97006.25;5082866;28;20255;-86
2022/05/14 07:43:04;;;;;;;8.63;5.47;;;;;;;22.19;50.08;97022.78;5120371;28;20285;-89
2022/05/14 07:45:35;;;;;;;13.17;5.80;;;;;;;22.12;50.90;97014.59;5121517;28;20246;-91
2022/05/14 07:48:06;;;;;;;6.87;5.30;;;;;;;22.22;51.72;97025.13;5103304;28;20194;-93
2022/05/14 07:50:39;;;;;;;6.23;4.30;;;;;;;22.07;53.03;97030.00;5099914;28;20596;-90
2022/05/14 07:53:06;;;;;;;6.73;4.23;;;;;;;21.81;52.81;96979.66;5125469;28;20329;-94
2022/05/14 07:55:43;;;;;;;5.47;4.37;;;;;;;22.01;52.61;97027.94;5120287;28;20216;-88
2022/05/14 07:58:20;;;;;;;5.13;4.43;;;;;;;21.86;53.47;97016.16;5125686;28;20192;-91
2022/05/14 08:00:51;;;;;;;9.33;5.07;;;;;;;21.75;55.37;97037.34;5103843;28;20210;-85
2022/05/14 08:03:23;;;;;;;7.40;4.93;;;;;;;21.12;55.77;96958.81;5088173;28;20230;-86
2022/05/14 08:05:56;;;;;;;6.73;4.83;;;;;;;21.43;56.75;97034.97;5126599;28;20198;-88
2022/05/14 08:08:24;;;;;;;7.57;4.60;;;;;;;21.30;59.23;97021.25;5125961;28;20246;-85
2022/05/14 08:10:52;;;;;;;8.90;5.20;;;;;;;21.28;61.37;97020.53;5125279;28;20231;-89
2022/05/14 08:13:25;;;;;;;6.23;5.20;;;;;;;21.31;61.85;97025.53;5090606;28;20192;-85
2022/05/14 08:15:53;;;;;;;10.40;5.97;;;;;;;21.15;63.14;96984.88;5108280;28;20181;-85
2022/05/14 08:18:22;;;;;;;7.53;5.13;;;;;;;21.39;63.69;97025.66;5130242;28;20185;-84
2022/05/14 08:20:51;;;;;;;7.17;5.60;;;;;;;21.27;64.96;97023.31;5129231;28;20201;-87
2022/05/14 08:26:08;;;;;;;9.73;6.00;;;;;;;21.20;65.63;97024.81;5130039;28;20193;-84
2022/05/14 08:28:40;;;;;;;7.03;5.53;;;;;;;20.99;65.78;96993.28;5113712;28;20185;-85
2022/05/14 08:31:15;;;;;;;6.43;5.10;;;;;;;21.15;64.62;96998.03;5117148;28;20185;-87
2022/05/14 08:33:56;;;;;;;8.70;5.70;;;;;;;21.10;63.64;96989.72;5098867;28;20197;-87
2022/05/14 08:36:25;;;;;;;5.43;4.93;;;;;;;21.18;63.09;96951.22;5111835;28;20189;-85
2022/05/14 08:38:54;;;;;;;7.63;5.80;;;;;;;21.69;62.01;96991.31;5114353;28;20214;-86
2022/05/14 08:41:23;;;;;;;10.20;5.77;;;;;;;22.36;61.47;97028.16;5115625;28;20178;-86
2022/05/14 08:43:59;;;;;;;6.30;4.50;;;;;;;22.81;58.95;97027.50;5118214;28;20209;-86
2022/05/14 08:46:30;;;;;;;7.63;5.07;;;;;;;23.23;58.73;97033.94;5115819;28;20197;-86
2022/05/14 08:49:14;;;;;;;6.97;4.77;;;;;;;23.30;57.10;97013.88;5096138;28;20805;-87
2022/05/14 08:51:45;;;;;;;8.57;3.97;;;;;;;23.44;56.65;97037.19;5075051;28;20192;-86
2022/05/14 08:54:13;;;;;;;6.27;3.97;;;;;;;23.36;55.62;97002.72;5071074;28;20667;-86
2022/05/14 08:57:12;;;;;;;5.10;4.60;;;;;;;23.76;55.61;97037.47;5126462;28;20185;-85
2022/05/14 09:00:00;;;;;;;8.53;5.17;;;;;;;23.94;55.01;97040.97;5107178;28;20200;-87
2022/05/14 09:02:32;;;;;;;4.57;3.20;;;;;;;23.86;54.39;97040.91;5108573;28;20227;-86
2022/05/14 09:05:21;;;;;;;4.63;3.50;;;;;;;23.83;54.38;97025.31;5129980;28;20285;-84
2022/05/14 09:07:50;;;;;;;6.00;4.90;;;;;;;23.97;53.00;97008.06;5098791;28;20185;-86
2022/05/14 09:10:30;;;;;;;6.27;4.77;;;;;;;24.25;50.31;97029.00;5115942;28;20194;-86
2022/05/14 09:13:09;;;;;;;6.27;3.80;;;;;;;24.23;50.63;97019.56;5133328;28;20206;-86
2022/05/14 09:15:49;;;;;;;7.10;4.97;;;;;;;24.44;50.66;97029.81;5118974;28;20193;-87
2022/05/14 09:18:44;;;;;;;7.07;5.33;;;;;;;24.49;50.97;97030.16;5138894;28;20178;-86
2022/05/14 09:21:27;;;;;;;5.07;4.20;;;;;;;24.44;51.37;97006.78;5135189;28;20210;-86
2022/05/14 09:24:00;;;;;;;6.43;5.03;;;;;;;24.40;50.47;96994.03;5110863;28;20281;-83
2022/05/14 09:26:37;;;;;;;8.00;4.20;;;;;;;24.06;49.84;96959.56;5123907;28;20656;-85
2022/05/14 09:29:51;;;;;;;8.57;4.60;;;;;;;24.37;49.86;97023.47;5089470;28;20193;-86
2022/05/14 09:32:41;;;;;;;7.27;4.77;;;;;;;24.29;48.88;97020.75;5079665;28;20197;-86
2022/05/14 09:35:13;;;;;;;7.67;4.73;;;;;;;24.43;47.78;97026.31;5095462;28;20241;-88
2022/05/14 09:37:48;;;;;;;6.50;3.47;;;;;;;24.37;47.60;97026.09;5099635;28;20206;-89
2022/05/14 09:40:28;;;;;;;5.10;4.07;;;;;;;24.21;49.64;97017.06;5104953;28;20202;-90
2022/05/14 09:43:21;;;;;;;7.10;3.00;;;;;;;24.11;49.20;97013.69;5115789;28;20561;-91
2022/05/14 09:46:00;;;;;;;5.97;3.27;;;;;;;24.17;48.44;97015.69;5104989;28;20225;-91
2022/05/14 09:48:35;;;;;;;7.07;3.10;;;;;;;24.10;49.23;96988.22;5075705;28;20632;-90
2022/05/14 09:51:08;;;;;;;3.47;3.07;;;;;;;24.32;46.71;96980.75;5092926;28;20747;-86
2022/05/14 09:53:39;;;;;;;5.23;3.87;;;;;;;24.45;47.31;96999.69;5078347;28;20194;-84
2022/05/14 09:56:39;;;;;;;3.73;2.53;;;;;;;24.50;46.86;96973.56;5102820;28;20186;-87
2022/05/14 09:59:41;;;;;;;4.00;2.47;;;;;;;24.81;45.23;96999.41;5094182;28;20200;-88
2022/05/14 10:02:37;;;;;;;3.73;2.33;;;;;;;24.80;45.66;97002.22;5104626;28;20191;-89
2022/05/14 10:05:43;;;;;;;5.67;2.40;;;;;;;24.93;44.99;97010.56;5110307;28;20325;-86
2022/05/14 10:08:46;;;;;;;4.57;2.07;;;;;;;24.96;43.42;96991.69;5108654;28;20183;-85
2022/05/14 10:11:34;;;;;;;3.80;2.20;;;;;;;25.02;44.34;96991.03;5089584;28;20334;-86
2022/05/14 10:14:07;;;;;;;6.30;3.47;;;;;;;25.13;45.50;96997.88;5085157;28;20194;-91
2022/05/14 10:16:39;;;;;;;3.27;2.37;;;;;;;25.39;44.13;96991.47;5062554;28;20223;-88
2022/05/14 10:19:29;;;;;;;4.90;2.33;;;;;;;25.72;43.77;96995.88;5075535;28;20357;-91
2022/05/14 10:22:05;;;;;;;2.20;2.00;;;;;;;25.66;43.48;96983.25;5092303;28;20233;-87
2022/05/14 10:27:52;;;;;;;4.33;2.57;;;;;;;25.79;43.56;96991.56;5094230;28;20317;-86
2022/05/14 10:30:49;;;;;;;4.97;4.57;;;;;;;25.60;42.41;96960.03;5079330;28;20185;-87
2022/05/14 10:33:22;;;;;;;5.00;3.07;;;;;;;25.77;42.28;96966.19;5057287;28;20971;-87
2022/05/14 10:36:09;;;;;;;5.37;2.70;;;;;;;26.07;41.59;96980.63;5092650;28;20614;-91
2022/05/14 10:39:06;;;;;;;6.53;2.80;;;;;;;26.21;41.72;96969.34;5092542;28;20689;-90
2022/05/14 10:41:43;;;;;;;5.47;3.27;;;;;;;26.20;40.98;96971.16;5090594;28;20552;-87
2022/05/14 10:44:41;;;;;;;3.40;3.10;;;;;;;26.17;41.47;96986.63;5090452;28;20249;-87
2022/05/14 10:47:11;;;;;;;3.80;2.67;;;;;;;26.07;42.76;96985.94;5087621;28;20197;-88
2022/05/14 10:49:48;;;;;;;4.13;2.70;;;;;;;25.99;44.11;96991.25;5073719;28;20530;-85
2022/05/14 10:52:17;;;;;;;4.87;2.83;;;;;;;26.11;43.40;96971.34;5058693;28;20198;-86
2022/05/14 10:54:49;;;;;;;4.80;3.37;;;;;;;26.30;43.61;96970.97;5088015;28;20204;-87
2022/05/14 10:57:19;;;;;;;5.43;3.00;;;;;;;26.39;42.40;96976.13;5076711;28;20189;-84
2022/05/14 11:00:10;;;;;;;2.57;2.37;;;;;;;26.54;42.33;96984.22;5055008;28;20279;-86
2022/05/14 11:03:12;;;;;;;3.30;2.70;;;;;;;26.49;41.82;96974.09;5054698;28;20185;-85
2022/05/14 11:06:04;;;;;;;4.73;3.03;;;;;;;26.34;42.23;96959.00;5054851;28;20240;-86
2022/05/14 11:08:43;;;;;;;3.87;2.70;;;;;;;26.61;41.78;96977.22;5089119;28;20196;-85
2022/05/14 11:11:21;;;;;;;3.97;2.90;;;;;;;26.51;41.62;96965.94;5071056;28;20259;-86
2022/05/14 11:14:10;;;;;;;2.50;2.20;;;;;;;26.60;42.43;96973.72;5091830;28;20279;-87
2022/05/14 11:16:50;;;;;;;3.43;2.20;;;;;;;26.70;41.85;96939.00;5070466;28;20197;-88
2022/05/14 11:19:33;;;;;;;2.77;2.30;;;;;;;26.71;40.81;96971.72;5090675;28;20208;-89
2022/05/14 11:22:01;;;;;;;2.87;2.57;;;;;;;26.62;41.81;96962.94;5072465;28;20210;-86
2022/05/14 11:24:39;;;;;;;4.73;2.73;;;;;;;26.74;40.95;96960.75;5037164;28;1584552;-89
2022/05/14 11:27:14;;;;;;;3.17;2.43;;;;;;;26.79;40.41;96953.91;5091424;28;20197;-90
2022/05/14 11:29:51;;;;;;;3.80;2.53;;;;;;;26.65;39.14;96913.94;5090675;28;20275;-89
2022/05/14 11:32:23;;;;;;;5.60;3.37;;;;;;;26.55;39.83;96932.72;5075566;28;20216;-90
2022/05/14 11:34:56;;;;;;;2.50;2.30;;;;;;;26.85;39.46;96955.91;5093227;28;20284;-89
2022/05/14 11:37:43;;;;;;;3.50;2.77;;;;;;;26.95;40.35;96963.66;5054699;28;20242;-86
2022/05/14 11:40:22;;;;;;;4.83;2.50;;;;;;;26.62;40.31;96962.94;5093033;28;20185;-89
2022/05/14 11:43:05;;;;;;;4.63;2.53;;;;;;;26.47;40.55;96938.06;5094366;28;20196;-90
2022/05/14 11:45:35;;;;;;;5.80;3.60;;;;;;;26.53;40.38;96929.41;5098138;28;20227;-88
2022/05/14 11:48:20;;;;;;;4.20;2.50;;;;;;;27.00;39.26;96956.81;5101660;28;20191;-88
2022/05/14 11:52:08;;;;;;;4.37;2.30;;;;;;;26.79;39.29;96931.84;5096701;28;20195;-87
2022/05/14 11:54:55;;;;;;;2.73;2.03;;;;;;;26.82;38.82;96934.97;5101762;28;20245;-89
2022/05/14 11:57:28;;;;;;;3.80;2.27;;;;;;;26.85;38.68;96944.44;5070612;28;20188;-87
2022/05/14 12:00:27;;;;;;;2.13;2.00;;;;;;;26.39;39.26;96938.09;5103719;28;20338;-87
2022/05/14 12:03:09;;;;;;;2.60;2.33;;;;;;;26.45;39.54;96937.41;5073619;28;20208;-87
2022/05/14 12:05:54;;;;;;;4.93;3.10;;;;;;;26.54;39.57;96928.44;5095338;28;20288;-92
2022/05/14 12:08:56;;;;;;;3.17;2.87;;;;;;;26.59;39.53;96920.75;5072705;28;20195;-88
2022/05/14 12:11:31;;;;;;;2.73;2.40;;;;;;;26.79;40.25;96922.03;5094224;28;20196;-91
2022/05/14 12:14:21;;;;;;;3.37;2.50;;;;;;;26.88;39.54;96918.34;5059484;28;20188;-88
2022/05/14 12:16:54;;;;;;;6.10;2.90;;;;;;;26.53;41.81;96910.81;5090898;28;20238;-88
2022/05/14 12:19:28;;;;;;;3.90;2.57;;;;;;;26.52;42.41;96906.53;5093071;28;20188;-87